createdAt,value
2018-12-19T00:00:20.232Z,8.58
2018-12-19T00:01:25.657Z,10.28
2018-12-19T00:02:30.882Z,9.68
2018-12-19T00:03:36.419Z,10.10
2018-12-19T00:04:41.075Z,10.60
2018-12-19T00:05:45.958Z,9.73
2018-12-19T00:06:51.858Z,10.32
2018-12-19T00:07:56.819Z,10.58
2018-12-19T00:09:03.336Z,8.98
2018-12-19T00:10:08.200Z,8.88
2018-12-19T00:11:12.920Z,8.93
2018-12-19T00:12:18.351Z,11.28
2018-12-19T00:13:24.051Z,10.82
2018-12-19T00:14:29.335Z,9.08
2018-12-19T00:15:34.505Z,7.65
2018-12-19T00:16:40.612Z,10.38
2018-12-19T00:17:45.612Z,12.33
2018-12-19T00:18:50.411Z,10.28
2018-12-19T00:19:55.396Z,9.68
2018-12-19T00:21:00.662Z,9.40
2018-12-19T00:22:05.555Z,8.95
2018-12-19T00:23:10.056Z,8.30
2018-12-19T00:24:14.854Z,10.58
2018-12-19T00:25:19.531Z,8.03
2018-12-19T00:26:24.541Z,8.08
2018-12-19T00:27:29.404Z,9.35
2018-12-19T00:28:33.992Z,10.00
2018-12-19T00:29:38.869Z,10.53
2018-12-19T00:30:43.537Z,9.58
2018-12-19T00:31:48.228Z,7.05
2018-12-19T00:32:54.432Z,9.10
2018-12-19T00:33:59.004Z,7.12
2018-12-19T00:35:03.566Z,10.75
2018-12-19T00:36:09.067Z,7.50
2018-12-19T00:37:14.327Z,9.80
2018-12-19T00:38:19.412Z,9.93
2018-12-19T00:39:24.294Z,10.00
2018-12-19T00:40:28.972Z,8.90
2018-12-19T00:41:34.347Z,8.50
2018-12-19T00:42:39.440Z,8.98
2018-12-19T00:43:44.029Z,9.10
2018-12-19T00:44:49.313Z,9.18
2018-12-19T00:45:54.063Z,8.63
2018-12-19T00:46:59.181Z,9.00
2018-12-19T00:48:05.358Z,11.43
2018-12-19T00:49:10.021Z,14.93
2018-12-19T00:50:15.181Z,12.05
2018-12-19T00:51:19.806Z,8.40
2018-12-19T00:52:24.781Z,7.25
2018-12-19T00:53:29.624Z,9.25
2018-12-19T00:54:34.310Z,11.20
2018-12-19T00:55:38.954Z,6.72
2018-12-19T00:56:43.490Z,8.80
2018-12-19T00:57:48.782Z,16.17
2018-12-19T00:58:53.254Z,9.38
2018-12-19T00:59:57.861Z,13.78
2018-12-19T01:01:02.924Z,7.92
2018-12-19T01:02:07.491Z,11.33
2018-12-19T01:03:12.410Z,12.53
2018-12-19T01:04:17.438Z,11.90
2018-12-19T01:05:22.222Z,8.90
2018-12-19T01:06:27.595Z,8.95
2018-12-19T01:07:32.354Z,8.98
2018-12-19T01:08:37.299Z,7.67
2018-12-19T01:09:42.597Z,9.45
2018-12-19T01:10:47.293Z,10.60
2018-12-19T01:11:51.963Z,9.48
2018-12-19T01:12:57.060Z,12.68
2018-12-19T01:14:01.660Z,7.17
2018-12-19T01:15:06.960Z,7.58
2018-12-19T01:16:12.666Z,8.88
2018-12-19T01:17:17.580Z,7.03
2018-12-19T01:18:22.395Z,8.05
2018-12-19T01:19:26.983Z,7.70
2018-12-19T01:20:31.700Z,8.60
2018-12-19T01:21:36.471Z,10.75
2018-12-19T01:22:40.934Z,7.33
2018-12-19T01:23:45.922Z,8.70
2018-12-19T01:24:50.874Z,8.25
2018-12-19T01:25:55.381Z,9.48
2018-12-19T01:27:00.048Z,7.10
2018-12-19T01:28:04.598Z,9.18
2018-12-19T01:29:09.096Z,7.87
2018-12-19T01:30:13.564Z,7.40
2018-12-19T01:31:32.305Z,6.47
2018-12-19T01:32:36.972Z,8.30
2018-12-19T01:33:42.231Z,11.57
2018-12-19T01:34:46.803Z,6.95
2018-12-19T01:35:51.518Z,9.65
2018-12-19T01:36:56.754Z,10.98
2018-12-19T01:38:01.598Z,9.10
2018-12-19T01:39:08.376Z,7.85
2018-12-19T01:40:13.010Z,9.80
2018-12-19T01:41:17.626Z,5.67
2018-12-19T01:42:22.302Z,11.22
2018-12-19T01:43:26.838Z,8.88
2018-12-19T01:44:31.490Z,10.50
2018-12-19T01:45:36.047Z,11.65
2018-12-19T01:46:40.622Z,8.18
2018-12-19T01:48:00.582Z,6.83
2018-12-19T01:49:06.467Z,8.65
2018-12-19T01:50:11.302Z,13.20
2018-12-19T01:51:15.897Z,8.33
2018-12-19T01:52:20.514Z,8.45
2018-12-19T01:53:25.110Z,8.80
2018-12-19T01:54:29.966Z,13.18
2018-12-19T01:55:34.456Z,12.25
2018-12-19T01:56:39.017Z,13.43
2018-12-19T01:57:43.555Z,25.80
2018-12-19T01:58:47.994Z,8.00
2018-12-19T01:59:53.167Z,9.20
2018-12-19T02:00:58.186Z,11.80
2018-12-19T02:02:02.889Z,15.98
2018-12-19T02:03:08.113Z,12.80
2018-12-19T02:04:12.626Z,14.60
2018-12-19T02:05:17.218Z,13.25
2018-12-19T02:06:22.097Z,9.88
2018-12-19T02:07:26.768Z,7.90
2018-12-19T02:08:31.224Z,18.42
2018-12-19T02:09:36.364Z,10.18
2018-12-19T02:10:40.851Z,11.40
2018-12-19T02:11:45.325Z,9.83
2018-12-19T02:12:50.422Z,11.08
2018-12-19T02:13:54.866Z,7.92
2018-12-19T02:14:59.319Z,9.85
2018-12-19T02:16:03.785Z,10.40
2018-12-19T02:17:08.262Z,9.20
2018-12-19T02:18:12.726Z,8.13
2018-12-19T02:19:17.306Z,11.18
2018-12-19T02:20:21.809Z,14.90
2018-12-19T02:21:26.327Z,16.12
2018-12-19T02:22:30.751Z,14.13
2018-12-19T02:23:35.237Z,7.33
2018-12-19T02:24:40.686Z,8.98
2018-12-19T02:25:45.162Z,7.53
2018-12-19T02:26:49.763Z,7.55
2018-12-19T02:27:54.251Z,7.33
2018-12-19T02:28:58.698Z,7.50
2018-12-19T02:30:03.319Z,10.75
2018-12-19T02:31:07.748Z,7.45
2018-12-19T02:32:12.250Z,11.33
2018-12-19T02:33:16.727Z,10.03
2018-12-19T02:34:21.498Z,9.50
2018-12-19T02:35:25.967Z,9.48
2018-12-19T02:36:30.574Z,9.38
2018-12-19T02:37:35.080Z,10.45
2018-12-19T02:38:39.625Z,6.75
2018-12-19T02:39:44.065Z,10.35
2018-12-19T02:40:48.520Z,8.40
2018-12-19T02:41:53.098Z,13.35
2018-12-19T02:42:57.902Z,15.05
2018-12-19T02:44:02.363Z,9.45
2018-12-19T02:45:07.198Z,8.53
2018-12-19T02:46:11.712Z,12.33
2018-12-19T02:47:16.259Z,9.13
2018-12-19T02:48:20.691Z,8.88
2018-12-19T02:49:25.504Z,13.53
2018-12-19T02:50:29.935Z,10.28
2018-12-19T02:51:34.366Z,11.35
2018-12-19T02:52:38.814Z,8.83
2018-12-19T02:53:43.292Z,12.03
2018-12-19T02:54:47.730Z,10.93
2018-12-19T02:55:52.471Z,9.05
2018-12-19T02:56:56.947Z,8.83
2018-12-19T02:58:01.438Z,8.23
2018-12-19T02:59:06.112Z,9.00
2018-12-19T03:00:10.935Z,9.38
2018-12-19T03:01:15.798Z,9.48
2018-12-19T03:02:20.328Z,10.75
2018-12-19T03:03:24.892Z,12.78
2018-12-19T03:04:29.382Z,8.25
2018-12-19T03:05:33.770Z,12.43
2018-12-19T03:06:38.169Z,11.88
2018-12-19T03:07:42.663Z,8.28
2018-12-19T03:08:47.094Z,8.75
2018-12-19T03:09:51.606Z,8.73
2018-12-19T03:10:56.204Z,6.70
2018-12-19T03:12:00.799Z,11.03
2018-12-19T03:13:05.477Z,8.08
2018-12-19T03:14:10.323Z,7.25
2018-12-19T03:15:15.254Z,7.40
2018-12-19T03:16:19.719Z,7.75
2018-12-19T03:17:24.316Z,9.38
2018-12-19T03:18:28.741Z,8.38
2018-12-19T03:19:33.930Z,9.85
2018-12-19T03:20:38.591Z,9.38
2018-12-19T03:21:43.086Z,10.03
2018-12-19T03:22:47.510Z,9.75
2018-12-19T03:23:52.722Z,9.80
2018-12-19T03:24:57.163Z,9.15
2018-12-19T03:26:01.667Z,9.00
2018-12-19T03:27:06.165Z,9.23
2018-12-19T03:28:10.793Z,8.33
2018-12-19T03:29:15.259Z,12.63
2018-12-19T03:30:19.867Z,15.68
2018-12-19T03:31:24.360Z,7.85
2018-12-19T03:32:28.820Z,14.28
2018-12-19T03:33:34.288Z,11.38
2018-12-19T03:34:39.104Z,10.05
2018-12-19T03:35:43.596Z,12.68
2018-12-19T03:36:48.484Z,10.10
2018-12-19T03:37:52.964Z,9.60
2018-12-19T03:38:57.809Z,13.68
2018-12-19T03:40:02.376Z,8.55
2018-12-19T03:41:07.328Z,8.50
2018-12-19T03:42:11.910Z,13.25
2018-12-19T03:43:16.455Z,9.55
2018-12-19T03:44:21.182Z,9.65
2018-12-19T03:45:25.860Z,8.53
2018-12-19T03:46:30.436Z,9.43
2018-12-19T03:47:34.914Z,9.40
2018-12-19T03:48:44.630Z,14.15
2018-12-19T03:49:49.615Z,10.45
2018-12-19T03:50:54.094Z,9.55
2018-12-19T03:51:58.058Z,11.10
2018-12-19T03:53:02.878Z,15.15
2018-12-19T03:54:07.762Z,8.50
2018-12-19T03:55:12.521Z,9.55
2018-12-19T03:56:17.521Z,9.50
2018-12-19T03:57:22.465Z,9.35
2018-12-19T03:58:28.248Z,10.03
2018-12-19T03:59:33.050Z,10.78
2018-12-19T04:00:38.521Z,9.00
2018-12-19T04:01:44.108Z,8.15
2018-12-19T04:02:48.460Z,7.80
2018-12-19T04:03:53.274Z,8.08
2018-12-19T04:04:58.365Z,9.25
2018-12-19T04:06:02.823Z,6.72
2018-12-19T04:07:07.271Z,11.18
2018-12-19T04:08:11.845Z,9.00
2018-12-19T04:09:16.267Z,8.55
2018-12-19T04:10:21.091Z,9.75
2018-12-19T04:11:25.917Z,7.67
2018-12-19T04:12:30.417Z,7.42
2018-12-19T04:13:34.950Z,8.38
2018-12-19T04:14:40.953Z,8.53
2018-12-19T04:15:45.651Z,8.40
2018-12-19T04:16:50.106Z,10.65
2018-12-19T04:17:54.758Z,11.40
2018-12-19T04:18:59.271Z,7.15
2018-12-19T04:20:04.132Z,8.75
2018-12-19T04:21:08.569Z,9.63
2018-12-19T04:22:13.540Z,9.40
2018-12-19T04:23:18.112Z,10.13
2018-12-19T04:24:22.621Z,7.40
2018-12-19T04:25:27.930Z,10.03
2018-12-19T04:26:32.643Z,10.60
2018-12-19T04:27:37.261Z,7.92
2018-12-19T04:30:40.171Z,6.45
2018-12-19T04:31:44.707Z,9.73
2018-12-19T04:32:49.988Z,10.70
2018-12-19T04:33:54.760Z,8.83
2018-12-19T04:34:59.218Z,12.10
2018-12-19T04:36:04.379Z,10.82
2018-12-19T04:37:08.833Z,8.03
2018-12-19T04:38:12.937Z,8.03
2018-12-19T04:39:17.437Z,8.78
2018-12-19T04:40:22.315Z,9.58
2018-12-19T04:41:26.809Z,9.93
2018-12-19T04:42:31.641Z,10.03
2018-12-19T04:43:37.945Z,7.83
2018-12-19T04:44:42.451Z,8.15
2018-12-19T04:45:47.387Z,7.55
2018-12-19T04:46:52.230Z,9.93
2018-12-19T04:47:56.700Z,7.80
2018-12-19T04:49:02.246Z,9.63
2018-12-19T04:50:06.913Z,7.20
2018-12-19T04:51:13.462Z,8.08
2018-12-19T04:52:18.029Z,17.35
2018-12-19T04:53:22.491Z,9.00
2018-12-19T04:54:26.918Z,10.25
2018-12-19T04:55:31.523Z,8.55
2018-12-19T04:56:36.054Z,7.92
2018-12-19T04:57:41.567Z,8.85
2018-12-19T04:58:46.110Z,12.00
2018-12-19T04:59:51.129Z,9.33
2018-12-19T05:00:55.589Z,9.05
2018-12-19T05:02:00.021Z,14.05
2018-12-19T05:03:04.878Z,7.12
2018-12-19T05:04:10.354Z,8.95
2018-12-19T05:05:14.867Z,12.20
2018-12-19T05:06:19.421Z,9.08
2018-12-19T05:07:24.326Z,8.63
2018-12-19T05:08:28.887Z,10.60
2018-12-19T05:09:33.454Z,15.38
2018-12-19T05:10:38.223Z,10.43
2018-12-19T05:11:42.689Z,9.55
2018-12-19T05:12:48.225Z,9.30
2018-12-19T05:13:52.702Z,14.15
2018-12-19T05:14:57.541Z,14.73
2018-12-19T05:16:02.208Z,8.85
2018-12-19T05:17:06.881Z,8.90
2018-12-19T05:18:11.297Z,11.73
2018-12-19T05:19:15.733Z,13.05
2018-12-19T05:20:22.082Z,10.78
2018-12-19T05:21:26.627Z,14.47
2018-12-19T05:22:32.389Z,10.32
2018-12-19T05:23:37.733Z,8.85
2018-12-19T05:24:42.184Z,10.25
2018-12-19T05:25:46.605Z,9.10
2018-12-19T05:26:51.303Z,10.00
2018-12-19T05:27:56.281Z,10.38
2018-12-19T05:29:01.323Z,8.45
2018-12-19T05:30:06.509Z,9.28
2018-12-19T05:31:11.222Z,13.15
2018-12-19T05:33:26.549Z,16.05
2018-12-19T05:34:31.837Z,18.60
2018-12-19T05:35:36.394Z,11.48
2018-12-19T05:36:48.703Z,13.78
2018-12-19T05:37:54.013Z,8.58
2018-12-19T05:38:58.543Z,10.38
2018-12-19T05:40:03.447Z,8.75
2018-12-19T05:41:07.921Z,10.50
2018-12-19T05:42:13.270Z,8.58
2018-12-19T05:43:18.322Z,8.15
2018-12-19T05:44:22.922Z,10.53
2018-12-19T05:45:27.374Z,9.18
2018-12-19T05:47:34.939Z,10.20
2018-12-19T05:48:39.983Z,20.05
2018-12-19T05:49:44.951Z,9.70
2018-12-19T05:50:50.381Z,8.30
2018-12-19T05:51:54.889Z,10.93
2018-12-19T05:53:01.646Z,9.20
2018-12-19T05:54:07.148Z,9.10
2018-12-19T05:55:12.411Z,9.88
2018-12-19T05:56:16.989Z,11.28
2018-12-19T05:57:24.050Z,9.50
2018-12-19T05:58:29.944Z,8.85
2018-12-19T05:59:34.525Z,11.65
2018-12-19T06:00:40.057Z,8.43
2018-12-19T06:01:44.606Z,12.37
2018-12-19T06:02:49.098Z,7.67
2018-12-19T06:03:53.581Z,10.18
2018-12-19T06:04:59.640Z,9.00
2018-12-19T06:06:04.380Z,10.43
2018-12-19T06:07:08.842Z,6.78
2018-12-19T06:08:13.285Z,10.45
2018-12-19T06:09:18.351Z,9.15
2018-12-19T06:10:26.240Z,7.30
2018-12-19T06:11:29.725Z,9.33
2018-12-19T06:12:34.418Z,14.87
2018-12-19T06:13:40.386Z,8.20
2018-12-19T06:14:44.894Z,8.30
2018-12-19T06:15:50.110Z,6.95
2018-12-19T06:16:55.246Z,9.30
2018-12-19T06:18:00.515Z,9.70
2018-12-19T06:19:05.211Z,9.30
2018-12-19T06:20:09.710Z,8.80
2018-12-19T06:21:14.226Z,8.75
2018-12-19T06:22:19.500Z,9.10
2018-12-19T06:23:23.925Z,13.15
2018-12-19T06:24:28.391Z,7.00
2018-12-19T06:25:33.967Z,7.65
2018-12-19T06:26:38.916Z,7.40
2018-12-19T06:27:43.418Z,7.97
2018-12-19T06:28:48.017Z,8.18
2018-12-19T06:29:52.990Z,7.50
2018-12-19T06:31:06.403Z,8.25
2018-12-19T06:32:11.880Z,10.30
2018-12-19T06:33:16.319Z,7.75
2018-12-19T06:34:23.558Z,9.30
2018-12-19T06:35:29.078Z,8.05
2018-12-19T06:36:33.733Z,6.10
2018-12-19T06:37:40.045Z,7.15
2018-12-19T06:38:44.700Z,7.47
2018-12-19T06:39:49.162Z,12.07
2018-12-19T06:40:54.901Z,9.78
2018-12-19T06:41:59.440Z,7.92
2018-12-19T06:43:04.276Z,6.97
2018-12-19T06:44:08.861Z,8.33
2018-12-19T06:45:13.461Z,7.83
2018-12-19T06:46:18.259Z,9.60
2018-12-19T06:47:23.767Z,9.90
2018-12-19T06:48:28.188Z,6.45
2018-12-19T06:49:32.848Z,7.62
2018-12-19T06:50:38.383Z,12.40
2018-12-19T06:51:43.669Z,7.42
2018-12-19T06:52:50.086Z,13.38
2018-12-19T06:53:56.951Z,8.58
2018-12-19T06:55:01.513Z,9.90
2018-12-19T06:56:16.414Z,17.20
2018-12-19T06:57:20.980Z,8.80
2018-12-19T06:58:25.465Z,7.05
2018-12-19T06:59:34.811Z,7.92
2018-12-19T07:00:40.493Z,7.17
2018-12-19T07:01:50.195Z,8.75
2018-12-19T07:02:54.740Z,8.55
2018-12-19T07:03:59.354Z,9.23
2018-12-19T07:05:05.285Z,9.30
2018-12-19T07:06:09.913Z,9.35
2018-12-19T07:07:15.255Z,22.85
2018-12-19T07:08:19.897Z,9.28
2018-12-19T07:09:26.890Z,7.97
2018-12-19T07:10:32.257Z,9.35
2018-12-19T07:11:36.751Z,6.80
2018-12-19T07:12:42.611Z,6.97
2018-12-19T07:13:47.499Z,10.88
2018-12-19T07:14:52.448Z,10.20
2018-12-19T07:15:57.385Z,8.23
2018-12-19T07:17:02.407Z,7.08
2018-12-19T07:18:06.942Z,6.22
2018-12-19T07:19:11.625Z,6.90
2018-12-19T07:20:16.152Z,14.68
2018-12-19T07:21:20.783Z,16.17
2018-12-19T07:22:25.239Z,9.25
2018-12-19T07:23:29.799Z,9.20
2018-12-19T07:24:34.243Z,7.67
2018-12-19T07:25:39.604Z,9.28
2018-12-19T07:26:44.053Z,8.38
2018-12-19T07:27:49.557Z,11.80
2018-12-19T07:28:55.431Z,6.90
2018-12-19T07:30:00.330Z,9.70
2018-12-19T07:31:04.970Z,8.68
2018-12-19T07:32:09.485Z,12.18
2018-12-19T07:33:14.671Z,8.15
2018-12-19T07:34:19.677Z,8.75
2018-12-19T07:35:24.340Z,11.33
2018-12-19T07:36:28.833Z,11.70
2018-12-19T07:37:33.891Z,7.65
2018-12-19T07:38:39.098Z,10.88
2018-12-19T07:39:44.297Z,11.08
2018-12-19T07:40:49.011Z,10.60
2018-12-19T07:41:53.495Z,8.70
2018-12-19T07:43:04.228Z,7.00
2018-12-19T07:44:57.041Z,12.23
2018-12-19T07:46:03.453Z,9.95
2018-12-19T07:47:08.818Z,10.48
2018-12-19T07:48:13.617Z,10.00
2018-12-19T07:49:19.319Z,12.37
2018-12-19T07:50:23.849Z,9.30
2018-12-19T07:51:28.363Z,11.25
2018-12-19T07:52:32.859Z,8.75
2018-12-19T07:53:37.852Z,11.35
2018-12-19T07:54:42.375Z,9.83
2018-12-19T07:55:47.340Z,9.28
2018-12-19T07:56:52.587Z,11.60
2018-12-19T07:57:57.110Z,9.58
2018-12-19T07:59:02.917Z,10.93
2018-12-19T08:00:08.360Z,9.55
2018-12-19T08:01:17.437Z,9.50
2018-12-19T08:02:22.870Z,8.75
2018-12-19T08:03:27.870Z,11.68
2018-12-19T08:04:33.455Z,9.58
2018-12-19T08:05:39.827Z,10.68
2018-12-19T08:06:46.176Z,11.65
2018-12-19T08:07:51.204Z,9.98
2018-12-19T08:08:56.364Z,8.13
2018-12-19T08:10:01.300Z,11.55
2018-12-19T08:11:05.941Z,10.35
2018-12-19T08:12:10.304Z,11.97
2018-12-19T08:13:16.232Z,10.53
2018-12-19T08:14:21.358Z,12.85
2018-12-19T08:15:25.912Z,11.33
2018-12-19T08:16:30.313Z,8.88
2018-12-19T08:17:34.714Z,14.35
2018-12-19T08:18:39.149Z,14.07
2018-12-19T08:19:44.280Z,10.75
2018-12-19T08:20:49.742Z,9.30
2018-12-19T08:21:55.455Z,20.80
2018-12-19T08:22:59.804Z,12.53
2018-12-19T08:24:04.337Z,10.48
2018-12-19T08:25:08.798Z,14.33
2018-12-19T08:26:13.133Z,12.65
2018-12-19T08:27:18.081Z,12.47
2018-12-19T08:28:36.739Z,14.13
2018-12-19T08:29:41.083Z,9.68
2018-12-19T08:30:45.608Z,10.95
2018-12-19T08:31:50.460Z,9.98
2018-12-19T08:32:55.011Z,12.98
2018-12-19T08:34:01.518Z,9.48
2018-12-19T08:35:06.429Z,9.35
2018-12-19T08:36:10.932Z,10.15
2018-12-19T08:37:15.395Z,7.97
2018-12-19T08:38:19.926Z,13.83
2018-12-19T08:39:24.469Z,12.95
2018-12-19T08:40:28.777Z,7.67
2018-12-19T08:41:33.364Z,10.88
2018-12-19T08:42:37.755Z,9.38
2018-12-19T08:43:42.265Z,16.27
2018-12-19T08:44:46.896Z,9.90
2018-12-19T08:45:53.794Z,9.00
2018-12-19T08:46:58.266Z,7.85
2018-12-19T08:48:03.637Z,8.15
2018-12-19T08:49:08.392Z,9.43
2018-12-19T08:50:12.790Z,12.95
2018-12-19T08:51:19.855Z,16.17
2018-12-19T08:52:26.175Z,13.80
2018-12-19T08:53:31.972Z,8.90
2018-12-19T08:54:36.381Z,9.05
2018-12-19T08:55:40.875Z,12.98
2018-12-19T08:56:46.227Z,9.70
2018-12-19T08:57:51.315Z,7.87
2018-12-19T08:58:55.619Z,8.00
2018-12-19T09:00:00.354Z,9.63
2018-12-19T09:01:08.389Z,11.75
2018-12-19T09:02:14.299Z,10.00
2018-12-19T09:03:18.611Z,17.98
2018-12-19T09:04:25.873Z,13.48
2018-12-19T09:05:32.057Z,16.85
2018-12-19T09:06:36.449Z,9.55
2018-12-19T09:07:52.955Z,12.05
2018-12-19T09:08:57.454Z,21.40
2018-12-19T09:10:01.869Z,12.10
2018-12-19T09:11:06.360Z,13.75
2018-12-19T09:12:10.917Z,8.55
2018-12-19T09:13:17.604Z,14.45
2018-12-19T09:14:22.623Z,9.00
2018-12-19T09:15:32.088Z,12.47
2018-12-19T09:16:36.403Z,12.93
2018-12-19T09:17:40.752Z,12.63
2018-12-19T09:18:46.393Z,8.83
2018-12-19T09:19:52.211Z,13.60
2018-12-19T09:20:59.192Z,15.98
2018-12-19T09:22:04.283Z,10.88
2018-12-19T09:23:08.852Z,8.38
2018-12-19T09:24:13.241Z,7.53
2018-12-19T09:25:19.163Z,13.30
2018-12-19T09:26:24.251Z,20.68
2018-12-19T09:27:30.935Z,17.73
2018-12-19T09:28:36.313Z,21.48
2018-12-19T09:29:40.913Z,10.72
2018-12-19T09:30:45.266Z,13.65
2018-12-19T09:31:50.288Z,14.70
2018-12-19T09:32:54.906Z,20.12
2018-12-19T09:33:59.314Z,13.45
2018-12-19T09:35:04.232Z,12.82
2018-12-19T09:36:08.892Z,12.43
2018-12-19T09:37:13.496Z,14.73
2018-12-19T09:38:18.334Z,13.10
2018-12-19T09:39:22.629Z,10.55
2018-12-19T09:40:26.974Z,18.20
2018-12-19T09:41:31.966Z,15.93
2018-12-19T09:42:36.816Z,16.93
2018-12-19T09:43:41.860Z,14.33
2018-12-19T09:44:47.983Z,17.67
2018-12-19T09:45:52.393Z,13.85
2018-12-19T09:46:56.739Z,11.93
2018-12-19T09:48:01.657Z,20.72
2018-12-19T09:49:12.218Z,14.18
2018-12-19T09:50:13.868Z,12.82
2018-12-19T09:51:18.229Z,12.65
2018-12-19T09:52:22.871Z,12.15
2018-12-19T09:53:28.810Z,12.78
2018-12-19T09:54:33.237Z,10.65
2018-12-19T09:55:38.287Z,16.65
2018-12-19T09:56:42.664Z,11.33
2018-12-19T09:57:47.232Z,9.63
2018-12-19T09:58:51.867Z,18.02
2018-12-19T09:59:56.373Z,11.73
2018-12-19T10:01:01.990Z,11.38
2018-12-19T10:02:06.868Z,12.75
2018-12-19T10:03:13.129Z,9.55
2018-12-19T10:04:17.530Z,12.33
2018-12-19T10:05:24.749Z,9.28
2018-12-19T10:06:29.343Z,8.80
2018-12-19T10:07:33.761Z,9.70
2018-12-19T10:08:40.185Z,10.00
2018-12-19T10:09:45.861Z,8.05
2018-12-19T10:10:52.187Z,12.33
2018-12-19T10:11:57.455Z,8.58
2018-12-19T10:13:07.968Z,9.63
2018-12-19T10:14:14.339Z,8.35
2018-12-19T10:15:18.764Z,12.63
2018-12-19T10:16:23.366Z,11.57
2018-12-19T10:17:27.966Z,8.70
2018-12-19T10:18:32.493Z,9.10
2018-12-19T10:19:36.895Z,7.70
2018-12-19T10:20:42.164Z,11.33
2018-12-19T10:21:47.440Z,10.03
2018-12-19T10:22:55.241Z,7.30
2018-12-19T10:23:59.749Z,11.88
2018-12-19T10:25:09.812Z,9.00
2018-12-19T10:26:14.838Z,7.37
2018-12-19T10:27:23.969Z,15.98
2018-12-19T10:28:35.605Z,13.83
2018-12-19T10:29:39.942Z,11.80
2018-12-19T10:30:48.280Z,6.85
2018-12-19T10:31:53.497Z,10.72
2018-12-19T10:32:59.648Z,9.80
2018-12-19T10:34:10.348Z,13.00
2018-12-19T10:35:15.429Z,13.58
2018-12-19T10:36:23.942Z,7.40
2018-12-19T10:37:28.394Z,8.25
2018-12-19T10:38:32.833Z,8.25
2018-12-19T10:39:38.638Z,14.73
2018-12-19T10:40:43.275Z,13.70
2018-12-19T10:41:47.721Z,21.10
2018-12-19T10:42:52.435Z,19.65
2018-12-19T10:43:58.173Z,13.80
2018-12-19T10:45:02.674Z,14.35
2018-12-19T10:46:07.398Z,14.13
2018-12-19T10:47:13.477Z,19.12
2018-12-19T10:48:17.913Z,19.05
2018-12-19T10:49:23.731Z,15.85
2018-12-19T10:50:28.797Z,17.67
2018-12-19T10:51:35.524Z,22.40
2018-12-19T10:52:40.924Z,14.93
2018-12-19T10:53:45.375Z,11.63
2018-12-19T10:54:51.742Z,8.05
2018-12-19T10:55:56.887Z,18.30
2018-12-19T10:57:03.252Z,15.50
2018-12-19T10:58:09.252Z,18.60
2018-12-19T10:59:14.883Z,12.98
2018-12-19T11:02:27.470Z,12.03
2018-12-19T11:03:34.225Z,17.37
2018-12-19T11:04:38.654Z,15.80
2018-12-19T11:05:44.577Z,25.75
2018-12-19T11:06:49.082Z,15.55
2018-12-19T11:07:56.516Z,14.85
2018-12-19T11:09:02.411Z,27.25
2018-12-19T11:10:08.829Z,63.15
2018-12-19T11:11:14.071Z,30.20
2018-12-19T11:12:18.688Z,13.32
2018-12-19T11:13:25.633Z,21.93
2018-12-19T11:14:31.731Z,32.35
2018-12-19T11:15:37.075Z,27.65
2018-12-19T11:16:44.793Z,18.73
2018-12-19T11:17:49.544Z,43.33
2018-12-19T11:18:54.738Z,34.38
2018-12-19T11:19:59.439Z,28.05
2018-12-19T11:21:04.837Z,16.15
2018-12-19T11:22:12.762Z,30.55
2018-12-19T11:23:19.799Z,44.18
2018-12-19T11:24:28.444Z,28.27
2018-12-19T11:25:33.875Z,15.53
2018-12-19T11:26:38.479Z,14.20
2018-12-19T11:27:43.792Z,27.87
2018-12-19T11:28:49.834Z,22.77
2018-12-19T11:29:54.299Z,32.10
2018-12-19T11:30:58.672Z,27.13
2018-12-19T11:32:03.797Z,22.85
2018-12-19T11:33:09.374Z,13.32
2018-12-19T11:34:14.372Z,26.57
2018-12-19T11:35:18.929Z,16.82
2018-12-19T11:36:23.606Z,19.92
2018-12-19T11:37:29.997Z,12.90
2018-12-19T11:38:37.207Z,13.40
2018-12-19T11:39:45.611Z,16.07
2018-12-19T11:40:50.156Z,17.62
2018-12-19T11:41:54.871Z,14.40
2018-12-19T11:43:05.876Z,19.35
2018-12-19T11:44:10.558Z,15.28
2018-12-19T11:45:18.262Z,15.75
2018-12-19T11:46:23.984Z,12.70
2018-12-19T11:47:29.211Z,14.73
2018-12-19T11:48:33.723Z,12.75
2018-12-19T11:49:40.611Z,9.33
2018-12-19T11:50:45.164Z,12.03
2018-12-19T11:51:51.489Z,11.10
2018-12-19T11:52:56.297Z,13.10
2018-12-19T11:54:01.576Z,10.78
2018-12-19T11:55:06.847Z,14.95
2018-12-19T11:56:11.466Z,18.73
2018-12-19T11:57:17.699Z,18.05
2018-12-19T11:58:22.523Z,9.45
2018-12-19T11:59:27.811Z,9.10
2018-12-19T12:00:32.886Z,8.38
2018-12-19T12:01:41.361Z,12.15
2018-12-19T12:02:44.992Z,9.93
2018-12-19T12:03:51.029Z,10.35
2018-12-19T12:05:00.142Z,8.90
2018-12-19T12:06:08.460Z,7.83
2018-12-19T12:07:13.877Z,10.03
2018-12-19T12:08:18.714Z,12.33
2018-12-19T12:09:26.358Z,9.73
2018-12-19T12:10:31.148Z,12.10
2018-12-19T12:11:36.111Z,17.85
2018-12-19T12:12:40.837Z,18.60
2018-12-19T12:13:46.290Z,20.80
2018-12-19T12:14:52.670Z,15.00
2018-12-19T12:15:59.697Z,15.20
2018-12-19T12:17:05.705Z,49.00
2018-12-19T12:18:11.291Z,40.43
2018-12-19T12:19:16.832Z,29.72
2018-12-19T12:20:26.310Z,18.65
2018-12-19T12:21:32.695Z,12.60
2018-12-19T12:22:41.080Z,26.73
2018-12-19T12:23:47.489Z,20.30
2018-12-19T12:24:52.548Z,42.30
2018-12-19T12:25:57.305Z,31.62
2018-12-19T12:27:01.924Z,15.80
2018-12-19T12:28:07.604Z,16.42
2018-12-19T12:29:14.039Z,14.50
2018-12-19T12:30:23.692Z,7.85
2018-12-19T12:31:35.545Z,11.18
2018-12-19T12:32:46.914Z,11.25
2018-12-19T12:33:53.633Z,10.70
2018-12-19T12:35:02.497Z,13.00
2018-12-19T12:36:09.142Z,11.20
2018-12-19T12:37:14.777Z,13.15
2018-12-19T12:38:20.337Z,9.03
2018-12-19T12:39:29.755Z,9.35
2018-12-19T12:40:34.728Z,6.70
2018-12-19T12:42:00.998Z,4.22
2018-12-19T12:43:06.584Z,5.83
2018-12-19T12:44:12.139Z,9.23
2018-12-19T12:45:18.819Z,14.10
2018-12-19T12:46:23.527Z,13.10
2018-12-19T12:47:30.676Z,19.17
2018-12-19T12:48:37.706Z,10.23
2018-12-19T12:49:43.961Z,8.80
2018-12-19T12:50:54.457Z,8.60
2018-12-19T12:51:59.377Z,9.25
2018-12-19T12:53:08.774Z,9.30
2018-12-19T12:54:13.926Z,13.95
2018-12-19T12:55:18.680Z,12.13
2018-12-19T12:56:28.559Z,5.95
2018-12-19T12:57:33.691Z,18.05
2018-12-19T12:58:38.369Z,16.67
2018-12-19T12:59:47.295Z,14.98
2018-12-19T13:00:53.874Z,11.93
2018-12-19T13:02:01.867Z,11.80
2018-12-19T13:03:07.174Z,13.83
2018-12-19T13:04:13.615Z,12.23
2018-12-19T13:05:21.494Z,7.37
2018-12-19T13:06:29.644Z,8.15
2018-12-19T13:07:35.411Z,13.43
2018-12-19T13:08:41.565Z,8.03
2018-12-19T13:09:46.173Z,19.02
2018-12-19T13:10:53.015Z,5.78
2018-12-19T13:11:58.989Z,11.10
2018-12-19T13:13:04.152Z,9.25
2018-12-19T13:14:10.921Z,9.00
2018-12-19T13:15:19.688Z,11.45
2018-12-19T13:16:26.387Z,14.33
2018-12-19T13:17:34.463Z,39.23
2018-12-19T13:18:41.851Z,29.40
2018-12-19T13:19:46.318Z,19.20
2018-12-19T13:20:50.913Z,20.27
2018-12-19T13:21:57.258Z,17.12
2018-12-19T13:23:01.871Z,25.55
2018-12-19T13:24:08.788Z,13.50
2018-12-19T13:25:13.740Z,10.63
2018-12-19T13:26:19.912Z,7.40
2018-12-19T13:31:42.023Z,9.45
2018-12-19T13:32:49.447Z,8.33
2018-12-19T13:33:56.985Z,10.05
2018-12-19T13:35:03.563Z,20.43
2018-12-19T13:41:52.212Z,15.68
2018-12-19T13:42:57.034Z,12.07
2018-12-19T13:44:02.193Z,9.78
2018-12-19T13:45:09.246Z,13.32
2018-12-19T13:46:14.936Z,7.17
2018-12-19T13:47:26.675Z,7.33
2018-12-19T13:48:32.247Z,7.35
2018-12-19T13:49:37.218Z,9.98
2018-12-19T13:50:41.837Z,11.97
2018-12-19T13:51:46.516Z,12.20
2018-12-19T13:52:54.465Z,22.98
2018-12-19T13:53:59.487Z,26.60
2018-12-19T13:55:04.704Z,44.25
2018-12-19T13:56:10.558Z,56.42
2018-12-19T13:57:14.989Z,66.70
2018-12-19T13:58:19.476Z,43.48
2018-12-19T13:59:24.045Z,40.48
2018-12-19T14:00:29.476Z,30.95
2018-12-19T14:01:34.781Z,29.55
2018-12-19T14:02:39.182Z,18.25
2018-12-19T14:03:44.086Z,16.73
2018-12-19T14:04:49.196Z,15.40
2018-12-19T14:05:57.489Z,11.18
2018-12-19T14:07:07.146Z,17.12
2018-12-19T14:08:11.867Z,16.25
2018-12-19T14:09:16.425Z,14.73
2018-12-19T14:10:44.236Z,36.70
2018-12-19T14:11:53.260Z,52.50
2018-12-19T14:12:59.884Z,40.58
2018-12-19T14:14:04.562Z,20.55
2018-12-19T14:15:09.703Z,17.75
2018-12-19T14:16:14.772Z,19.60
2018-12-19T14:17:19.316Z,17.32
2018-12-19T14:18:25.534Z,18.23
2018-12-19T14:19:32.733Z,21.05
2018-12-19T14:20:37.506Z,21.25
2018-12-19T14:21:43.120Z,12.33
2018-12-19T14:22:51.979Z,12.13
2018-12-19T14:24:05.191Z,13.65
2018-12-19T14:25:15.649Z,16.00
2018-12-19T14:26:22.162Z,25.45
2018-12-19T14:27:27.543Z,27.60
2018-12-19T14:28:32.329Z,13.90
2018-12-19T14:29:42.512Z,17.05
2018-12-19T14:30:56.185Z,22.10
2018-12-19T14:32:03.140Z,18.65
2018-12-19T14:33:09.301Z,18.87